Home   Weather   Netherlands   The Hague   Past weeks
Flag for Netherlands

Past Weather in The Hague, Netherlands — Yesterday and Last 2 Weeks

Currently: 82 °F. Clear. (Weather station: Rotterdam Zestienhoven Airport, Netherlands). See more current weather

Past Weather in The Hague — Graph

°F

The Hague Temperature Yesterday

Maximum temperature yesterday: 73 °F (at 2:55 pm)
Minimum temperature yesterday: 61 °F (at 6:55 am)
Average temperature yesterday: 66 °F

High & Low Weather Summary for the Past Weeks

 TemperatureHumidityPressure
High82 °F (Jun 2, 4:55 pm)100% (Jun 5, 5:25 am)30.36 "Hg (Jun 5, 5:25 am)
Low50 °F (Jun 6, 1:55 am)26% (Jun 2, 5:25 pm)29.89 "Hg (Jun 2, 6:25 pm)
Average65 °F70%30.14 "Hg
* Reported Jun 1 3:25 pm — Jun 16 3:55 pm, The Hague. Weather by CustomWeather, © 2021

Note: Actual official high and low records may vary slightly from our data, if they occured in-between our weather recording intervals... More about our weather records

The Hague Weather History for the Previous 24 Hours

Scroll right to see more
 ConditionsComfort  
Time TempWeatherWind HumidityBarometerVisibility
3:55 pm
Wed, Jun 16
82 °FWarm.6 mph45%29.89 "HgN/A
3:25 pm82 °FClear.7 mph42%29.89 "HgN/A
2:55 pm82 °FClear.5 mph45%29.89 "HgN/A
2:25 pm81 °FWarm.7 mph48%29.89 "HgN/A
1:55 pm81 °FWarm.7 mph45%29.92 "HgN/A
1:25 pm79 °FClear.7 mph48%29.92 "HgN/A
12:55 pm79 °FWarm.6 mph48%29.92 "HgN/A
12:25 pm79 °FWarm.9 mph48%29.92 "HgN/A
11:55 am79 °FWarm.7 mph48%29.95 "HgN/A
11:25 am77 °FWarm.10 mph47%29.95 "HgN/A
10:55 am75 °FMild.10 mph50%29.95 "HgN/A
10:25 am75 °FMild.12 mph50%29.95 "HgN/A
9:55 am73 °FMild.10 mph50%29.95 "HgN/A
9:25 am72 °FMild.9 mph57%29.95 "HgN/A
8:55 am70 °FClear.8 mph60%29.98 "HgN/A
8:25 am68 °FClear.6 mph60%29.98 "HgN/A
7:55 am66 °FPassing clouds.6 mph64%29.98 "HgN/A
7:25 am64 °FPassing clouds.5 mph68%29.98 "HgN/A
6:55 am63 °FPassing clouds.6 mph73%30.01 "HgN/A
6:25 am61 °FPassing clouds.5 mph77%30.01 "HgN/A
5:55 am57 °FPassing clouds.3 mph82%30.01 "HgN/A
5:25 am57 °FPassing clouds.3 mph82%30.01 "HgN/A
4:55 am55 °FPassing clouds.3 mph88%30.01 "HgN/A
4:25 am55 °FClear.3 mph88%30.04 "HgN/A
3:55 am57 °FClear.3 mph82%30.04 "HgN/A
3:25 am55 °FClear.5 mph88%30.04 "HgN/A
2:55 am57 °FClear.3 mph82%30.04 "HgN/A
2:25 am59 °FClear.3 mph82%30.04 "HgN/A
1:55 am59 °FClear.2 mph77%30.07 "HgN/A
1:25 am61 °FClear.3 mph72%30.07 "HgN/A
12:55 am61 °FCool.5 mph72%30.07 "HgN/A
12:25 am59 °FClear.6 mph77%30.07 "HgN/A
11:55 pm
Tue, Jun 15
61 °FClear.5 mph72%30.09 "HgN/A
11:25 pm63 °FClear.3 mph73%30.09 "HgN/A
10:55 pm61 °FClear.5 mph72%30.09 "HgN/A
10:25 pm63 °FClear.6 mph68%30.09 "HgN/A
9:55 pm64 °FClear.3 mph68%30.09 "HgN/A
9:25 pm66 °FClear.6 mph64%30.09 "HgN/A
8:55 pm68 °FClear.6 mph56%30.09 "HgN/A
8:25 pm68 °FClear.8 mph56%30.09 "HgN/A
7:55 pm68 °FClear.9 mph56%30.09 "HgN/A
7:25 pm70 °FClear.9 mph53%30.12 "HgN/A
6:55 pm72 °FClear.9 mph53%30.09 "HgN/A
6:25 pm72 °FClear.9 mph53%30.12 "HgN/A
5:55 pm72 °FClear.9 mph57%30.12 "HgN/A
5:25 pm72 °FClear.9 mph57%30.12 "HgN/A
Weather by CustomWeather, © 2021

See weather overview